sensor_id;sensor_type;location;lat;lon;timestamp;pressure;altitude;pressure_sealevel;temperature;humidity
3434;BME280;1730;41.932;25.548;2023-09-18T00:00:43;100504.78;;;19.30;100.00
3434;BME280;1730;41.932;25.548;2023-09-18T00:03:09;100580.41;;;20.00;100.00
3434;BME280;1730;41.932;25.548;2023-09-18T00:05:35;100604.66;;;20.25;100.00
3434;BME280;1730;41.932;25.548;2023-09-18T00:08:00;100578.78;;;20.05;100.00
3434;BME280;1730;41.932;25.548;2023-09-18T00:10:27;100619.53;;;20.08;100.00
3434;BME280;1730;41.932;25.548;2023-09-18T00:12:54;100621.72;;;20.13;100.00
3434;BME280;1730;41.932;25.548;2023-09-18T00:15:20;100588.97;;;19.97;100.00
3434;BME280;1730;41.932;25.548;2023-09-18T00:17:46;100595.56;;;20.25;100.00
3434;BME280;1730;41.932;25.548;2023-09-18T00:20:11;100483.28;;;19.50;100.00
3434;BME280;1730;41.932;25.548;2023-09-18T00:22:39;100578.66;;;20.21;100.00
3434;BME280;1730;41.932;25.548;2023-09-18T00:25:05;100583.00;;;20.16;100.00
3434;BME280;1730;41.932;25.548;2023-09-18T00:27:30;100569.19;;;20.09;100.00
3434;BME280;1730;41.932;25.548;2023-09-18T00:29:58;100584.47;;;20.04;100.00
3434;BME280;1730;41.932;25.548;2023-09-18T00:32:23;100469.66;;;19.42;100.00
3434;BME280;1730;41.932;25.548;2023-09-18T00:34:49;100468.03;;;19.56;100.00
3434;BME280;1730;41.932;25.548;2023-09-18T00:37:15;100383.47;;;19.23;100.00
3434;BME280;1730;41.932;25.548;2023-09-18T00:39:42;100580.63;;;20.13;100.00
3434;BME280;1730;41.932;25.548;2023-09-18T00:42:09;100555.03;;;20.20;100.00
3434;BME280;1730;41.932;25.548;2023-09-18T00:44:41;100417.19;;;19.16;100.00
3434;BME280;1730;41.932;25.548;2023-09-18T00:47:10;100577.13;;;20.19;100.00
3434;BME280;1730;41.932;25.548;2023-09-18T00:49:38;100566.63;;;20.31;100.00
3434;BME280;1730;41.932;25.548;2023-09-18T00:52:07;100533.47;;;20.40;100.00
3434;BME280;1730;41.932;25.548;2023-09-18T00:54:34;100511.28;;;20.35;100.00
3434;BME280;1730;41.932;25.548;2023-09-18T00:57:01;100322.84;;;19.34;100.00
3434;BME280;1730;41.932;25.548;2023-09-18T00:59:27;100469.84;;;20.01;100.00
3434;BME280;1730;41.932;25.548;2023-09-18T01:01:53;100512.81;;;20.15;100.00
3434;BME280;1730;41.932;25.548;2023-09-18T01:04:19;100511.94;;;20.14;100.00
3434;BME280;1730;41.932;25.548;2023-09-18T01:06:45;100515.75;;;20.13;100.00
3434;BME280;1730;41.932;25.548;2023-09-18T01:09:11;100312.16;;;18.87;100.00
3434;BME280;1730;41.932;25.548;2023-09-18T01:17:04;100529.22;;;20.00;100.00
3434;BME280;1730;41.932;25.548;2023-09-18T01:19:45;100499.09;;;20.00;100.00
3434;BME280;1730;41.932;25.548;2023-09-18T01:22:13;100359.31;;;19.50;100.00
3434;BME280;1730;41.932;25.548;2023-09-18T01:24:40;100462.66;;;20.29;100.00
3434;BME280;1730;41.932;25.548;2023-09-18T01:27:15;100466.25;;;20.15;100.00
3434;BME280;1730;41.932;25.548;2023-09-18T01:29:47;100471.37;;;20.18;100.00
3434;BME280;1730;41.932;25.548;2023-09-18T01:32:13;100198.53;;;18.56;100.00
3434;BME280;1730;41.932;25.548;2023-09-18T01:34:47;100362.94;;;19.42;100.00
3434;BME280;1730;41.932;25.548;2023-09-18T01:37:14;100474.25;;;20.02;100.00
3434;BME280;1730;41.932;25.548;2023-09-18T01:39:41;100468.59;;;20.03;100.00
3434;BME280;1730;41.932;25.548;2023-09-18T01:42:07;100376.78;;;19.26;100.00
3434;BME280;1730;41.932;25.548;2023-09-18T01:44:35;100397.19;;;19.38;100.00
3434;BME280;1730;41.932;25.548;2023-09-18T01:47:12;100481.34;;;20.11;100.00
3434;BME280;1730;41.932;25.548;2023-09-18T01:49:39;100454.72;;;20.19;100.00
3434;BME280;1730;41.932;25.548;2023-09-18T01:52:07;100367.09;;;19.90;100.00
3434;BME280;1730;41.932;25.548;2023-09-18T01:54:33;100428.28;;;20.12;100.00
3434;BME280;1730;41.932;25.548;2023-09-18T01:56:59;100445.16;;;19.86;100.00
3434;BME280;1730;41.932;25.548;2023-09-18T01:59:26;100442.84;;;19.75;100.00
3434;BME280;1730;41.932;25.548;2023-09-18T02:01:52;100505.22;;;20.02;100.00
3434;BME280;1730;41.932;25.548;2023-09-18T02:04:20;100519.72;;;19.88;100.00
3434;BME280;1730;41.932;25.548;2023-09-18T02:06:47;100396.19;;;19.16;100.00
3434;BME280;1730;41.932;25.548;2023-09-18T02:09:12;100535.59;;;19.78;100.00
3434;BME280;1730;41.932;25.548;2023-09-18T02:11:39;100524.97;;;19.75;100.00
3434;BME280;1730;41.932;25.548;2023-09-18T02:14:05;100557.00;;;19.74;100.00
3434;BME280;1730;41.932;25.548;2023-09-18T02:16:35;100447.31;;;18.85;100.00
3434;BME280;1730;41.932;25.548;2023-09-18T02:19:04;100568.28;;;19.49;100.00
3434;BME280;1730;41.932;25.548;2023-09-18T02:21:30;100592.75;;;19.50;100.00
3434;BME280;1730;41.932;25.548;2023-09-18T02:23:56;100606.78;;;19.47;100.00
3434;BME280;1730;41.932;25.548;2023-09-18T02:26:24;100630.37;;;19.48;100.00
3434;BME280;1730;41.932;25.548;2023-09-18T02:28:52;100512.38;;;18.89;100.00
3434;BME280;1730;41.932;25.548;2023-09-18T02:31:18;100513.81;;;18.69;100.00
3434;BME280;1730;41.932;25.548;2023-09-18T02:33:43;100478.00;;;18.48;100.00
3434;BME280;1730;41.932;25.548;2023-09-18T02:36:09;100640.59;;;19.54;100.00
3434;BME280;1730;41.932;25.548;2023-09-18T02:38:34;100582.31;;;19.15;100.00
3434;BME280;1730;41.932;25.548;2023-09-18T02:41:00;100641.88;;;19.44;100.00
3434;BME280;1730;41.932;25.548;2023-09-18T02:43:27;100637.06;;;19.46;100.00
3434;BME280;1730;41.932;25.548;2023-09-18T02:45:53;100655.81;;;19.57;100.00
3434;BME280;1730;41.932;25.548;2023-09-18T02:48:19;100611.47;;;19.30;100.00
3434;BME280;1730;41.932;25.548;2023-09-18T02:50:45;100640.13;;;19.51;100.00
3434;BME280;1730;41.932;25.548;2023-09-18T02:53:18;100567.41;;;18.78;100.00
3434;BME280;1730;41.932;25.548;2023-09-18T02:55:47;100689.41;;;19.26;100.00
3434;BME280;1730;41.932;25.548;2023-09-18T02:58:13;100712.03;;;19.20;100.00
3434;BME280;1730;41.932;25.548;2023-09-18T03:00:42;100732.88;;;19.13;100.00
3434;BME280;1730;41.932;25.548;2023-09-18T03:03:10;100745.03;;;19.11;100.00
3434;BME280;1730;41.932;25.548;2023-09-18T03:05:36;100762.78;;;19.15;100.00
3434;BME280;1730;41.932;25.548;2023-09-18T03:08:02;100775.63;;;19.06;100.00
3434;BME280;1730;41.932;25.548;2023-09-18T03:10:28;100778.00;;;19.09;100.00
3434;BME280;1730;41.932;25.548;2023-09-18T03:12:53;100569.59;;;17.95;100.00
3434;BME280;1730;41.932;25.548;2023-09-18T03:15:19;100775.63;;;19.14;100.00
3434;BME280;1730;41.932;25.548;2023-09-18T03:17:44;100777.53;;;18.98;100.00
3434;BME280;1730;41.932;25.548;2023-09-18T03:20:10;100821.44;;;18.88;100.00
3434;BME280;1730;41.932;25.548;2023-09-18T03:22:36;100836.66;;;18.90;100.00
3434;BME280;1730;41.932;25.548;2023-09-18T03:25:01;100831.88;;;18.68;100.00
3434;BME280;1730;41.932;25.548;2023-09-18T03:30:03;100846.75;;;18.90;100.00
3434;BME280;1730;41.932;25.548;2023-09-18T03:32:29;100870.47;;;18.81;100.00
3434;BME280;1730;41.932;25.548;2023-09-18T03:34:55;100874.37;;;18.71;100.00
3434;BME280;1730;41.932;25.548;2023-09-18T03:37:21;100904.44;;;18.71;100.00
3434;BME280;1730;41.932;25.548;2023-09-18T03:42:21;100944.97;;;18.41;100.00
3434;BME280;1730;41.932;25.548;2023-09-18T03:44:46;100984.75;;;18.44;100.00
3434;BME280;1730;41.932;25.548;2023-09-18T03:47:14;100613.31;;;16.36;100.00
3434;BME280;1730;41.932;25.548;2023-09-18T03:49:39;100995.34;;;18.73;100.00
3434;BME280;1730;41.932;25.548;2023-09-18T03:52:21;100713.62;;;17.18;100.00
3434;BME280;1730;41.932;25.548;2023-09-18T03:54:47;100954.72;;;18.52;100.00
3434;BME280;1730;41.932;25.548;2023-09-18T03:57:14;100976.78;;;18.51;100.00
3434;BME280;1730;41.932;25.548;2023-09-18T03:59:40;100992.00;;;18.53;100.00
3434;BME280;1730;41.932;25.548;2023-09-18T04:02:06;100786.13;;;17.02;100.00
3434;BME280;1730;41.932;25.548;2023-09-18T04:04:31;100975.94;;;18.16;100.00
3434;BME280;1730;41.932;25.548;2023-09-18T04:06:57;101020.78;;;18.47;100.00
3434;BME280;1730;41.932;25.548;2023-09-18T04:09:23;101040.63;;;18.50;100.00
3434;BME280;1730;41.932;25.548;2023-09-18T04:11:48;100986.37;;;18.21;100.00
3434;BME280;1730;41.932;25.548;2023-09-18T04:14:16;101046.31;;;18.56;100.00
3434;BME280;1730;41.932;25.548;2023-09-18T04:16:43;100956.34;;;18.21;100.00
3434;BME280;1730;41.932;25.548;2023-09-18T04:19:09;101004.22;;;18.83;100.00
3434;BME280;1730;41.932;25.548;2023-09-18T04:21:35;100985.25;;;18.73;100.00
3434;BME280;1730;41.932;25.548;2023-09-18T04:24:01;100976.69;;;18.68;100.00
3434;BME280;1730;41.932;25.548;2023-09-18T04:26:27;100877.03;;;17.96;100.00
3434;BME280;1730;41.932;25.548;2023-09-18T04:28:57;101000.69;;;18.90;100.00
3434;BME280;1730;41.932;25.548;2023-09-18T04:31:23;100976.28;;;19.13;100.00
3434;BME280;1730;41.932;25.548;2023-09-18T04:33:48;100912.03;;;19.25;100.00
3434;BME280;1730;41.932;25.548;2023-09-18T04:36:15;100826.19;;;19.43;100.00
3434;BME280;1730;41.932;25.548;2023-09-18T04:38:40;100731.59;;;19.56;100.00
3434;BME280;1730;41.932;25.548;2023-09-18T04:41:06;100698.50;;;19.66;100.00
3434;BME280;1730;41.932;25.548;2023-09-18T04:43:37;100540.47;;;19.37;100.00
3434;BME280;1730;41.932;25.548;2023-09-18T04:46:04;100577.88;;;20.50;100.00
3434;BME280;1730;41.932;25.548;2023-09-18T04:48:31;100458.81;;;20.38;100.00
3434;BME280;1730;41.932;25.548;2023-09-18T04:50:57;100401.06;;;20.54;100.00
3434;BME280;1730;41.932;25.548;2023-09-18T04:53:24;100373.22;;;20.93;100.00
3434;BME280;1730;41.932;25.548;2023-09-18T04:55:49;100257.47;;;20.98;100.00
3434;BME280;1730;41.932;25.548;2023-09-18T04:58:18;100151.66;;;20.54;100.00
3434;BME280;1730;41.932;25.548;2023-09-18T05:00:43;99959.34;;;19.61;100.00
3434;BME280;1730;41.932;25.548;2023-09-18T05:03:10;100172.28;;;21.34;100.00
3434;BME280;1730;41.932;25.548;2023-09-18T05:05:36;100134.09;;;21.32;100.00
3434;BME280;1730;41.932;25.548;2023-09-18T05:08:06;100121.09;;;21.54;100.00
3434;BME280;1730;41.932;25.548;2023-09-18T05:10:34;100013.63;;;21.90;100.00
3434;BME280;1730;41.932;25.548;2023-09-18T05:12:59;100004.78;;;21.88;100.00
3434;BME280;1730;41.932;25.548;2023-09-18T05:15:26;99894.53;;;21.51;100.00
3434;BME280;1730;41.932;25.548;2023-09-18T05:17:52;99968.03;;;22.22;100.00
3434;BME280;1730;41.932;25.548;2023-09-18T05:20:21;99910.63;;;22.71;100.00
3434;BME280;1730;41.932;25.548;2023-09-18T05:22:50;99908.75;;;22.52;100.00
3434;BME280;1730;41.932;25.548;2023-09-18T05:25:15;99916.06;;;22.14;100.00
3434;BME280;1730;41.932;25.548;2023-09-18T05:27:41;99894.25;;;22.83;100.00
3434;BME280;1730;41.932;25.548;2023-09-18T05:30:11;99831.69;;;23.34;100.00
3434;BME280;1730;41.932;25.548;2023-09-18T05:32:37;99816.34;;;22.51;100.00
3434;BME280;1730;41.932;25.548;2023-09-18T05:35:04;99611.94;;;22.14;100.00
3434;BME280;1730;41.932;25.548;2023-09-18T05:37:32;99807.16;;;26.60;100.00
3434;BME280;1730;41.932;25.548;2023-09-18T05:39:59;99698.88;;;27.51;100.00
3434;BME280;1730;41.932;25.548;2023-09-18T05:42:26;99693.94;;;25.62;100.00
3434;BME280;1730;41.932;25.548;2023-09-18T05:44:51;99699.91;;;25.70;100.00
3434;BME280;1730;41.932;25.548;2023-09-18T05:47:16;99717.09;;;25.37;100.00
3434;BME280;1730;41.932;25.548;2023-09-18T05:49:42;99639.12;;;26.55;100.00
3434;BME280;1730;41.932;25.548;2023-09-18T06:05:00;99502.53;;;24.28;100.00
3434;BME280;1730;41.932;25.548;2023-09-18T06:07:26;99502.53;;;24.28;100.00
3434;BME280;1730;41.932;25.548;2023-09-18T06:09:52;99693.06;;;24.02;100.00
3434;BME280;1730;41.932;25.548;2023-09-18T06:12:18;99724.44;;;23.21;100.00
3434;BME280;1730;41.932;25.548;2023-09-18T06:14:44;99708.59;;;22.67;100.00
3434;BME280;1730;41.932;25.548;2023-09-18T06:17:12;99787.59;;;22.54;100.00
3434;BME280;1730;41.932;25.548;2023-09-18T06:19:37;99809.72;;;22.65;100.00
3434;BME280;1730;41.932;25.548;2023-09-18T06:22:04;99812.47;;;22.72;100.00
3434;BME280;1730;41.932;25.548;2023-09-18T06:24:29;99793.81;;;22.74;100.00
3434;BME280;1730;41.932;25.548;2023-09-18T06:26:55;99792.06;;;23.35;100.00
3434;BME280;1730;41.932;25.548;2023-09-18T06:29:21;99790.22;;;23.05;100.00
3434;BME280;1730;41.932;25.548;2023-09-18T06:31:49;99803.03;;;22.55;100.00
3434;BME280;1730;41.932;25.548;2023-09-18T06:34:15;99799.09;;;22.69;100.00
3434;BME280;1730;41.932;25.548;2023-09-18T06:36:42;99846.47;;;22.33;100.00
3434;BME280;1730;41.932;25.548;2023-09-18T06:39:07;99597.34;;;21.31;100.00
3434;BME280;1730;41.932;25.548;2023-09-18T06:41:33;99836.16;;;22.15;100.00
3434;BME280;1730;41.932;25.548;2023-09-18T06:43:59;99882.69;;;21.97;100.00
3434;BME280;1730;41.932;25.548;2023-09-18T06:46:28;99913.53;;;21.79;100.00
3434;BME280;1730;41.932;25.548;2023-09-18T06:48:53;99905.78;;;22.54;100.00
3434;BME280;1730;41.932;25.548;2023-09-18T06:51:19;99875.66;;;22.27;100.00
3434;BME280;1730;41.932;25.548;2023-09-18T06:53:44;99907.63;;;22.66;100.00
3434;BME280;1730;41.932;25.548;2023-09-18T06:56:10;99845.69;;;22.70;100.00
3434;BME280;1730;41.932;25.548;2023-09-18T06:58:38;99876.75;;;21.87;100.00
3434;BME280;1730;41.932;25.548;2023-09-18T07:01:04;99875.72;;;21.94;100.00
3434;BME280;1730;41.932;25.548;2023-09-18T07:03:32;99876.34;;;22.03;100.00
3434;BME280;1730;41.932;25.548;2023-09-18T07:06:00;99884.19;;;22.57;100.00
3434;BME280;1730;41.932;25.548;2023-09-18T07:08:26;99859.59;;;22.69;100.00
3434;BME280;1730;41.932;25.548;2023-09-18T07:10:53;99835.56;;;22.96;100.00
3434;BME280;1730;41.932;25.548;2023-09-18T07:13:19;99848.06;;;22.98;100.00
3434;BME280;1730;41.932;25.548;2023-09-18T07:15:44;99751.63;;;23.61;100.00
3434;BME280;1730;41.932;25.548;2023-09-18T07:18:10;99757.25;;;23.91;100.00
3434;BME280;1730;41.932;25.548;2023-09-18T07:20:43;99709.13;;;22.82;100.00
3434;BME280;1730;41.932;25.548;2023-09-18T07:23:09;99739.19;;;22.84;100.00
3434;BME280;1730;41.932;25.548;2023-09-18T07:25:34;99767.44;;;23.22;100.00
3434;BME280;1730;41.932;25.548;2023-09-18T07:28:00;99744.22;;;23.36;100.00
3434;BME280;1730;41.932;25.548;2023-09-18T07:30:25;99767.69;;;24.00;100.00
3434;BME280;1730;41.932;25.548;2023-09-18T07:32:55;99718.03;;;23.89;100.00
3434;BME280;1730;41.932;25.548;2023-09-18T07:35:24;99718.16;;;24.60;100.00
3434;BME280;1730;41.932;25.548;2023-09-18T07:37:49;99697.69;;;24.38;100.00
3434;BME280;1730;41.932;25.548;2023-09-18T07:40:15;99667.72;;;23.82;100.00
3434;BME280;1730;41.932;25.548;2023-09-18T07:42:43;99695.16;;;24.36;100.00
3434;BME280;1730;41.932;25.548;2023-09-18T07:45:12;99660.91;;;23.48;100.00
3434;BME280;1730;41.932;25.548;2023-09-18T07:47:39;99697.00;;;24.42;100.00
3434;BME280;1730;41.932;25.548;2023-09-18T07:50:05;99693.88;;;23.91;100.00
3434;BME280;1730;41.932;25.548;2023-09-18T07:52:32;99701.16;;;23.67;100.00
3434;BME280;1730;41.932;25.548;2023-09-18T07:54:58;99691.72;;;23.74;100.00
3434;BME280;1730;41.932;25.548;2023-09-18T07:57:24;99687.06;;;24.53;100.00
3434;BME280;1730;41.932;25.548;2023-09-18T07:59:50;99693.12;;;24.32;100.00
3434;BME280;1730;41.932;25.548;2023-09-18T08:02:16;99611.09;;;24.15;100.00
3434;BME280;1730;41.932;25.548;2023-09-18T08:04:42;99671.72;;;24.87;100.00
3434;BME280;1730;41.932;25.548;2023-09-18T08:07:08;99633.84;;;24.52;100.00
3434;BME280;1730;41.932;25.548;2023-09-18T08:09:33;99638.72;;;25.03;100.00
3434;BME280;1730;41.932;25.548;2023-09-18T08:12:06;99652.56;;;24.20;100.00
3434;BME280;1730;41.932;25.548;2023-09-18T08:14:32;99659.69;;;24.40;100.00
3434;BME280;1730;41.932;25.548;2023-09-18T08:17:01;99655.81;;;23.99;100.00
3434;BME280;1730;41.932;25.548;2023-09-18T08:19:28;99651.31;;;24.88;100.00
3434;BME280;1730;41.932;25.548;2023-09-18T08:21:54;99646.25;;;25.43;100.00
3434;BME280;1730;41.932;25.548;2023-09-18T08:24:22;99645.13;;;25.67;100.00
3434;BME280;1730;41.932;25.548;2023-09-18T08:26:48;99635.31;;;25.36;100.00
3434;BME280;1730;41.932;25.548;2023-09-18T08:29:14;99639.56;;;25.04;100.00
3434;BME280;1730;41.932;25.548;2023-09-18T08:31:39;99637.63;;;24.93;100.00
3434;BME280;1730;41.932;25.548;2023-09-18T08:34:05;99636.16;;;25.37;100.00
3434;BME280;1730;41.932;25.548;2023-09-18T08:36:31;99634.75;;;24.99;100.00
3434;BME280;1730;41.932;25.548;2023-09-18T08:38:58;99639.94;;;24.96;100.00
3434;BME280;1730;41.932;25.548;2023-09-18T08:41:24;99651.13;;;24.59;100.00
3434;BME280;1730;41.932;25.548;2023-09-18T08:44:00;99630.25;;;24.63;100.00
3434;BME280;1730;41.932;25.548;2023-09-18T08:46:26;99613.72;;;25.45;100.00
3434;BME280;1730;41.932;25.548;2023-09-18T08:48:51;99581.25;;;25.92;100.00
3434;BME280;1730;41.932;25.548;2023-09-18T08:51:20;99613.72;;;25.45;100.00
3434;BME280;1730;41.932;25.548;2023-09-18T08:53:47;99574.37;;;25.14;100.00
3434;BME280;1730;41.932;25.548;2023-09-18T08:56:14;99612.97;;;25.89;100.00
3434;BME280;1730;41.932;25.548;2023-09-18T08:58:43;99610.81;;;24.47;100.00
3434;BME280;1730;41.932;25.548;2023-09-18T09:01:10;99599.34;;;24.73;100.00
3434;BME280;1730;41.932;25.548;2023-09-18T09:03:40;99611.22;;;24.20;100.00
3434;BME280;1730;41.932;25.548;2023-09-18T09:06:06;99604.13;;;24.78;100.00
3434;BME280;1730;41.932;25.548;2023-09-18T09:08:33;99596.56;;;24.85;100.00
3434;BME280;1730;41.932;25.548;2023-09-18T09:10:59;99598.59;;;25.36;100.00
3434;BME280;1730;41.932;25.548;2023-09-18T09:13:26;99587.22;;;25.21;100.00
3434;BME280;1730;41.932;25.548;2023-09-18T09:15:56;99592.50;;;25.22;100.00
3434;BME280;1730;41.932;25.548;2023-09-18T09:18:27;99584.47;;;24.74;100.00
3434;BME280;1730;41.932;25.548;2023-09-18T09:20:59;99588.47;;;25.41;100.00
3434;BME280;1730;41.932;25.548;2023-09-18T09:23:27;99592.50;;;25.74;100.00
3434;BME280;1730;41.932;25.548;2023-09-18T09:25:54;99589.72;;;25.34;100.00
3434;BME280;1730;41.932;25.548;2023-09-18T09:28:29;99589.31;;;26.22;100.00
3434;BME280;1730;41.932;25.548;2023-09-18T09:31:03;99482.75;;;25.29;97.35
3434;BME280;1730;41.932;25.548;2023-09-18T09:33:29;99588.53;;;25.98;95.49
3434;BME280;1730;41.932;25.548;2023-09-18T09:35:56;99581.37;;;26.14;93.53
3434;BME280;1730;41.932;25.548;2023-09-18T09:38:29;99572.09;;;25.11;100.00
3434;BME280;1730;41.932;25.548;2023-09-18T09:40:57;99574.72;;;25.98;100.00
3434;BME280;1730;41.932;25.548;2023-09-18T09:43:25;99571.53;;;26.51;98.90
3434;BME280;1730;41.932;25.548;2023-09-18T09:45:57;99572.97;;;26.54;95.14
3434;BME280;1730;41.932;25.548;2023-09-18T09:48:23;99576.84;;;26.08;89.20
3434;BME280;1730;41.932;25.548;2023-09-18T09:50:51;99568.81;;;25.78;90.34
3434;BME280;1730;41.932;25.548;2023-09-18T09:53:17;99554.25;;;25.82;92.19
3434;BME280;1730;41.932;25.548;2023-09-18T09:55:44;99567.09;;;25.48;93.50
3434;BME280;1730;41.932;25.548;2023-09-18T09:58:11;99559.81;;;25.99;96.02
3434;BME280;1730;41.932;25.548;2023-09-18T10:00:46;99560.31;;;25.68;96.07
3434;BME280;1730;41.932;25.548;2023-09-18T10:03:19;99549.38;;;26.18;96.97
3434;BME280;1730;41.932;25.548;2023-09-18T10:05:49;99519.88;;;25.62;96.68
3434;BME280;1730;41.932;25.548;2023-09-18T10:08:25;99529.31;;;26.22;96.51
3434;BME280;1730;41.932;25.548;2023-09-18T10:10:54;99557.22;;;26.54;93.57
3434;BME280;1730;41.932;25.548;2023-09-18T10:13:24;99529.09;;;26.79;91.46
3434;BME280;1730;41.932;25.548;2023-09-18T10:15:53;99537.03;;;27.09;89.27
3434;BME280;1730;41.932;25.548;2023-09-18T10:18:45;99551.69;;;26.87;85.92
3434;BME280;1730;41.932;25.548;2023-09-18T10:21:38;99490.25;;;26.90;95.58
3434;BME280;1730;41.932;25.548;2023-09-18T10:26:43;99546.94;;;26.05;93.58
3434;BME280;1730;41.932;25.548;2023-09-18T10:29:13;99543.63;;;25.74;97.99
3434;BME280;1730;41.932;25.548;2023-09-18T10:31:39;99543.72;;;26.58;93.75
3434;BME280;1730;41.932;25.548;2023-09-18T10:34:06;99538.75;;;26.93;92.97
3434;BME280;1730;41.932;25.548;2023-09-18T10:36:34;99537.25;;;27.24;88.29
3434;BME280;1730;41.932;25.548;2023-09-18T10:39:00;99530.66;;;27.30;85.74
3434;BME280;1730;41.932;25.548;2023-09-18T10:41:28;99497.87;;;27.22;80.87
3434;BME280;1730;41.932;25.548;2023-09-18T10:43:56;99521.87;;;27.16;83.31
3434;BME280;1730;41.932;25.548;2023-09-18T10:46:24;99502.88;;;27.03;88.80
3434;BME280;1730;41.932;25.548;2023-09-18T10:48:51;99518.56;;;27.58;83.24
3434;BME280;1730;41.932;25.548;2023-09-18T10:51:22;99516.62;;;27.85;82.22
3434;BME280;1730;41.932;25.548;2023-09-18T10:53:48;99524.97;;;26.81;82.11
3434;BME280;1730;41.932;25.548;2023-09-18T10:56:19;99514.28;;;26.52;81.60
3434;BME280;1730;41.932;25.548;2023-09-18T10:58:45;99517.16;;;26.95;79.13
3434;BME280;1730;41.932;25.548;2023-09-18T11:01:13;99512.00;;;26.65;76.57
3434;BME280;1730;41.932;25.548;2023-09-18T11:03:39;99516.47;;;27.26;77.85
3434;BME280;1730;41.932;25.548;2023-09-18T11:06:10;99491.41;;;26.56;79.44
3434;BME280;1730;41.932;25.548;2023-09-18T11:08:45;99429.09;;;26.15;83.37
3434;BME280;1730;41.932;25.548;2023-09-18T11:11:12;99503.19;;;26.68;83.17
3434;BME280;1730;41.932;25.548;2023-09-18T11:13:44;99519.53;;;27.25;80.63
3434;BME280;1730;41.932;25.548;2023-09-18T11:19:05;99494.22;;;27.43;79.38
3434;BME280;1730;41.932;25.548;2023-09-18T11:21:33;99367.13;;;26.16;76.52
3434;BME280;1730;41.932;25.548;2023-09-18T11:24:06;99506.78;;;26.85;79.82
3434;BME280;1730;41.932;25.548;2023-09-18T11:26:39;99503.81;;;26.54;76.71
3434;BME280;1730;41.932;25.548;2023-09-18T11:29:08;99495.56;;;26.75;76.40
3434;BME280;1730;41.932;25.548;2023-09-18T11:31:48;99409.06;;;26.63;78.18
3434;BME280;1730;41.932;25.548;2023-09-18T11:34:28;99487.62;;;27.22;77.58
3434;BME280;1730;41.932;25.548;2023-09-18T11:36:58;99394.31;;;26.79;74.45
3434;BME280;1730;41.932;25.548;2023-09-18T11:42:12;99480.47;;;27.48;75.33
3434;BME280;1730;41.932;25.548;2023-09-18T11:44:40;99481.72;;;27.14;72.93
3434;BME280;1730;41.932;25.548;2023-09-18T11:47:16;99497.87;;;27.22;74.14
3434;BME280;1730;41.932;25.548;2023-09-18T11:49:54;99476.38;;;27.29;76.89
3434;BME280;1730;41.932;25.548;2023-09-18T11:52:25;99486.62;;;27.50;78.54
3434;BME280;1730;41.932;25.548;2023-09-18T11:54:51;99465.97;;;27.63;78.57
3434;BME280;1730;41.932;25.548;2023-09-18T11:57:18;99472.88;;;27.17;80.88
3434;BME280;1730;41.932;25.548;2023-09-18T11:59:47;99467.13;;;26.80;84.06
3434;BME280;1730;41.932;25.548;2023-09-18T12:02:30;99476.47;;;26.57;84.54
3434;BME280;1730;41.932;25.548;2023-09-18T12:05:17;99472.09;;;26.61;88.02
3434;BME280;1730;41.932;25.548;2023-09-18T12:07:44;99251.34;;;25.09;88.20
3434;BME280;1730;41.932;25.548;2023-09-18T12:10:15;99477.84;;;26.55;86.66
3434;BME280;1730;41.932;25.548;2023-09-18T12:12:44;99465.16;;;27.19;86.67
3434;BME280;1730;41.932;25.548;2023-09-18T12:15:14;99462.97;;;27.69;84.52
3434;BME280;1730;41.932;25.548;2023-09-18T12:17:42;99466.16;;;27.56;80.29
3434;BME280;1730;41.932;25.548;2023-09-18T12:20:15;99464.44;;;27.77;80.87
3434;BME280;1730;41.932;25.548;2023-09-18T12:22:50;99431.59;;;27.37;83.22
3434;BME280;1730;41.932;25.548;2023-09-18T12:25:16;99461.25;;;27.63;83.38
3434;BME280;1730;41.932;25.548;2023-09-18T12:27:44;99461.25;;;27.63;77.68
3434;BME280;1730;41.932;25.548;2023-09-18T12:30:11;99458.47;;;27.15;80.34
3434;BME280;1730;41.932;25.548;2023-09-18T12:32:38;99458.06;;;27.50;79.92
3434;BME280;1730;41.932;25.548;2023-09-18T12:35:07;99455.47;;;27.21;77.16
3434;BME280;1730;41.932;25.548;2023-09-18T12:37:42;99386.03;;;26.79;78.70
3434;BME280;1730;41.932;25.548;2023-09-18T12:40:21;99447.53;;;27.25;79.02
3434;BME280;1730;41.932;25.548;2023-09-18T12:42:47;99453.47;;;27.39;78.21
3434;BME280;1730;41.932;25.548;2023-09-18T12:45:12;99443.03;;;27.99;78.49
3434;BME280;1730;41.932;25.548;2023-09-18T12:47:38;99436.59;;;28.26;77.57
3434;BME280;1730;41.932;25.548;2023-09-18T12:50:07;99403.66;;;28.39;77.16
3434;BME280;1730;41.932;25.548;2023-09-18T12:52:32;99427.72;;;27.97;75.72
3434;BME280;1730;41.932;25.548;2023-09-18T12:54:58;99421.37;;;27.69;75.73
3434;BME280;1730;41.932;25.548;2023-09-18T12:57:29;99428.47;;;27.87;75.59
3434;BME280;1730;41.932;25.548;2023-09-18T12:59:55;99419.19;;;28.03;76.10
3434;BME280;1730;41.932;25.548;2023-09-18T13:02:21;99397.03;;;28.08;75.88
3434;BME280;1730;41.932;25.548;2023-09-18T13:04:56;99412.00;;;28.44;71.71
3434;BME280;1730;41.932;25.548;2023-09-18T13:07:23;99319.34;;;27.61;70.71
3434;BME280;1730;41.932;25.548;2023-09-18T13:10:08;99408.75;;;27.84;72.10
3434;BME280;1730;41.932;25.548;2023-09-18T13:12:56;99405.47;;;27.87;73.09
3434;BME280;1730;41.932;25.548;2023-09-18T13:17:53;99408.06;;;27.66;76.82
3434;BME280;1730;41.932;25.548;2023-09-18T13:20:25;99412.59;;;27.24;76.66
3434;BME280;1730;41.932;25.548;2023-09-18T13:22:53;99404.69;;;27.59;78.09
3434;BME280;1730;41.932;25.548;2023-09-18T13:25:23;99401.28;;;27.52;79.52
3434;BME280;1730;41.932;25.548;2023-09-18T13:27:50;99399.81;;;27.71;79.58
3434;BME280;1730;41.932;25.548;2023-09-18T13:30:16;99403.41;;;27.72;81.67
3434;BME280;1730;41.932;25.548;2023-09-18T13:32:44;99395.78;;;27.89;83.47
3434;BME280;1730;41.932;25.548;2023-09-18T13:35:10;99400.06;;;27.70;82.48
3434;BME280;1730;41.932;25.548;2023-09-18T13:37:39;99402.47;;;27.61;83.34